createdAt,value
2018-08-30T06:31:25.645Z,49.6
2018-08-30T06:32:15.736Z,49.6
2018-08-30T06:33:05.750Z,50
2018-08-30T06:33:55.814Z,50.4
2018-08-30T06:34:45.902Z,50.8
2018-08-30T06:35:35.950Z,51.2
2018-08-30T06:36:25.832Z,51.6
2018-08-30T06:38:05.574Z,52.3
2018-08-30T06:38:56.157Z,52.8
2018-08-30T06:39:45.982Z,53.1
2018-08-30T06:40:36.346Z,53.5
2018-08-30T06:41:26.514Z,53.9
2018-08-30T06:42:16.474Z,54.3
2018-08-30T06:43:06.539Z,54.7
2018-08-30T06:43:56.801Z,55.1
2018-08-30T06:44:46.368Z,55.4
2018-08-30T06:45:36.447Z,55.8
2018-08-30T06:46:26.499Z,56.2
2018-08-30T06:47:16.855Z,56.6
2018-08-30T06:48:06.904Z,56.9
2018-08-30T06:48:56.887Z,57.4
2018-08-30T06:49:47.096Z,58.8
2018-08-30T06:50:37.119Z,58.4
2018-08-30T06:51:27.164Z,56.8
2018-08-30T06:52:17.268Z,53.8
2018-08-30T06:53:07.298Z,50.6
2018-08-30T06:53:57.071Z,48.8
2018-08-30T06:54:47.131Z,47.8
2018-08-30T06:55:37.481Z,47.1
2018-08-30T06:56:28.146Z,46.7
2018-08-30T06:57:17.361Z,46.7
2018-08-30T06:58:07.689Z,46.8
2018-08-30T06:58:57.453Z,47.3
2018-08-30T06:59:47.829Z,47.8
2018-08-30T07:00:37.596Z,48.4
2018-08-30T07:01:27.973Z,49.1
2018-08-30T07:02:17.982Z,49.9
2018-08-30T07:03:07.506Z,50.6
2018-08-30T07:03:58.218Z,51.3
2018-08-30T07:05:38.316Z,52.6
2018-08-30T07:06:28.327Z,53.3
2018-08-30T07:07:18.110Z,53.9
2018-08-30T07:08:08.461Z,54.6
2018-08-30T07:08:58.512Z,55.3
2018-08-30T07:09:48.282Z,55.9
2018-08-30T07:10:38.367Z,56.5
2018-08-30T07:11:28.700Z,57.1
2018-08-30T07:12:18.785Z,58.2
2018-08-30T07:13:08.553Z,59.6
2018-08-30T07:13:58.955Z,58.4
2018-08-30T07:14:48.773Z,56.8
2018-08-30T07:15:39.025Z,54.8
2018-08-30T07:16:28.807Z,52.8
2018-08-30T07:17:19.398Z,51.6
2018-08-30T07:18:08.952Z,50.8
2018-08-30T07:18:59.002Z,50.4
2018-08-30T07:19:49.062Z,50.6
2018-08-30T07:20:39.409Z,51
2018-08-30T07:21:29.496Z,51.7
2018-08-30T07:22:19.544Z,52.4
2018-08-30T07:23:09.640Z,53.2
2018-08-30T07:23:59.916Z,54
2018-08-30T07:24:49.744Z,54.8
2018-08-30T07:25:39.803Z,55.6
2018-08-30T07:26:29.580Z,56.4
2018-08-30T07:27:19.933Z,57.3
2018-08-30T07:28:10.031Z,59.3
2018-08-30T07:28:59.801Z,59.6
2018-08-30T07:29:49.861Z,59
2018-08-30T07:30:40.185Z,58.2
2018-08-30T07:31:30.249Z,56.8
2018-08-30T07:32:19.791Z,55.4
2018-08-30T07:33:10.382Z,54.5
2018-08-30T07:34:00.398Z,54.2
2018-08-30T07:34:50.872Z,53.9
2018-08-30T07:35:40.581Z,53.8
2018-08-30T07:36:30.363Z,54.1
2018-08-30T07:37:21.201Z,54.6
2018-08-30T07:38:10.773Z,55.4
2018-08-30T07:39:00.829Z,56.4
2018-08-30T07:39:50.903Z,57.9
2018-08-30T07:40:40.669Z,59.9
2018-08-30T07:41:31.033Z,60.1
2018-08-30T07:42:21.102Z,59.9
2018-08-30T07:43:11.148Z,58.9
2018-08-30T07:44:01.544Z,57.4
2018-08-30T07:44:51.284Z,56.1
2018-08-30T07:45:41.352Z,55.6
2018-08-30T07:46:31.119Z,55.8
2018-08-30T07:47:22.012Z,56.3
2018-08-30T07:48:11.541Z,56.7
2018-08-30T07:49:01.609Z,56.8
2018-08-30T07:49:51.670Z,56.7
2018-08-30T07:50:41.808Z,56.4
2018-08-30T07:51:31.798Z,56.1
2018-08-30T07:52:21.862Z,56.2
2018-08-30T07:53:11.926Z,56.3
2018-08-30T07:54:01.997Z,56.5
2018-08-30T07:54:52.048Z,56.8
2018-08-30T07:55:42.117Z,56.9
2018-08-30T07:56:32.189Z,56.9
2018-08-30T07:57:22.522Z,56.9
2018-08-30T07:58:12.048Z,56.9
2018-08-30T07:59:02.378Z,56.9
2018-08-30T07:59:52.697Z,56.9
2018-08-30T08:00:42.209Z,57
2018-08-30T08:01:32.569Z,57.1
2018-08-30T08:02:22.054Z,57.1
2018-08-30T08:03:12.663Z,57.2
2018-08-30T08:04:03.029Z,57.2
2018-08-30T08:04:52.824Z,57.3
2018-08-30T08:05:42.884Z,57.3
2018-08-30T08:06:32.687Z,57.4
2018-08-30T08:07:22.883Z,57.4
2018-08-30T08:08:13.084Z,57.5
2018-08-30T08:09:02.913Z,57.6
2018-08-30T08:09:53.229Z,57.7
2018-08-30T08:12:23.403Z,57.8
2018-08-30T08:13:13.485Z,57.8
2018-08-30T08:14:03.249Z,57.9
2018-08-30T08:14:53.333Z,57.9
2018-08-30T08:15:43.678Z,57.9
2018-08-30T08:16:33.731Z,57.9
2018-08-30T08:17:23.786Z,57.9
2018-08-30T08:18:13.851Z,57.9
2018-08-30T08:19:03.993Z,57.9
2018-08-30T08:19:53.958Z,57.9
2018-08-30T08:20:44.051Z,58.1
2018-08-30T08:21:34.120Z,58.2
2018-08-30T08:22:24.193Z,58.3
2018-08-30T08:23:14.243Z,58.5
2018-08-30T08:24:04.317Z,58.6
2018-08-30T08:24:54.836Z,58.8
2018-08-30T08:25:44.748Z,58.9
2018-08-30T08:26:34.211Z,59.1
2018-08-30T08:27:24.580Z,59.2
2018-08-30T08:28:14.632Z,59.4
2018-08-30T08:29:04.750Z,59.6
2018-08-30T08:29:54.865Z,59.7
2018-08-30T08:30:44.837Z,59.9
2018-08-30T08:31:34.892Z,60
2018-08-30T08:32:24.958Z,60.2
2018-08-30T08:33:15.025Z,60.3
2018-08-30T08:34:05.341Z,60.4
2018-08-30T08:34:55.409Z,60.6
2018-08-30T08:35:45.220Z,60.7
2018-08-30T08:36:35.538Z,60.8
2018-08-30T08:37:25.072Z,60.9
2018-08-30T08:38:15.118Z,61
2018-08-30T08:39:05.492Z,61.1
2018-08-30T08:39:55.534Z,61.2
2018-08-30T08:40:45.604Z,61.3
2018-08-30T08:41:35.706Z,61.4
2018-08-30T08:42:25.726Z,61.5
2018-08-30T08:43:15.794Z,61.6
2018-08-30T08:44:06.154Z,61.7
2018-08-30T08:44:55.924Z,61.8
2018-08-30T08:45:46.508Z,61.9
2018-08-30T08:46:36.056Z,62.1
2018-08-30T08:47:26.146Z,62.2
2018-08-30T08:48:15.906Z,62.3
2018-08-30T08:49:05.955Z,62.4
2018-08-30T08:49:56.317Z,62.5
2018-08-30T08:50:46.379Z,62.6
2018-08-30T08:51:36.469Z,62.7
2018-08-30T08:52:26.235Z,62.8
2018-08-30T08:53:16.591Z,62.8
2018-08-30T08:54:06.653Z,62.9
2018-08-30T08:54:56.690Z,63
2018-08-30T08:55:46.492Z,63.1
2018-08-30T08:56:36.873Z,63.2
2018-08-30T08:57:26.333Z,63.3
2018-08-30T08:58:16.983Z,63.4
2018-08-30T09:14:39.928Z,65.1
2018-08-30T09:15:29.416Z,65.2
2018-08-30T09:16:19.206Z,65.3
2018-08-30T09:17:09.541Z,65.4
2018-08-30T09:17:59.133Z,65.6
2018-08-30T09:18:49.397Z,65.6
2018-08-30T09:19:39.741Z,65.7
2018-08-30T09:20:29.244Z,65.8
2018-08-30T09:21:19.379Z,65.9
2018-08-30T09:22:09.928Z,65.9
2018-08-30T09:22:59.474Z,66.1
2018-08-30T09:23:50.049Z,66.1
2018-08-30T09:24:39.860Z,66.3
2018-08-30T09:25:30.236Z,66.3
2018-08-30T09:26:20.277Z,66.4
2018-08-30T09:27:10.634Z,66.4
2018-08-30T09:28:00.113Z,66.5
2018-08-30T09:28:50.452Z,66.5
2018-08-30T09:29:40.522Z,66.6
2018-08-30T09:30:30.292Z,66.6
2018-08-30T09:31:20.642Z,66.6
2018-08-30T09:32:10.723Z,66.7
2018-08-30T09:33:01.020Z,66.8
2018-08-30T09:33:50.859Z,66.8
2018-08-30T09:34:40.906Z,66.9
2018-08-30T09:35:30.973Z,66.9
2018-08-30T09:36:20.759Z,67
2018-08-30T09:37:11.338Z,66.9
2018-08-30T09:38:00.885Z,66.9
2018-08-30T09:38:50.957Z,66.8
2018-08-30T09:39:41.299Z,66.8
2018-08-30T09:40:31.362Z,66.7
2018-08-30T09:41:21.157Z,66.7
2018-08-30T09:42:11.544Z,66.7
2018-08-30T09:43:01.287Z,66.7
2018-08-30T09:43:52.095Z,66.8
2018-08-30T09:44:41.416Z,66.8
2018-08-30T09:45:31.475Z,66.9
2018-08-30T09:46:21.816Z,67
2018-08-30T09:47:11.591Z,67.1
2018-08-30T09:48:01.959Z,67.1
2018-08-30T09:48:51.746Z,67.1
2018-08-30T09:49:42.361Z,67.1
2018-08-30T09:50:31.862Z,67.1
2018-08-30T09:51:21.883Z,67.1
2018-08-30T09:52:12.518Z,67.1
2018-08-30T09:53:02.051Z,67.2
2018-08-30T09:53:52.120Z,67.3
2018-08-30T09:54:42.210Z,67.3
2018-08-30T09:55:32.289Z,67.4
2018-08-30T09:56:22.870Z,67.4
2018-08-30T09:57:13.384Z,67.5
2018-08-30T09:58:02.465Z,67.5
2018-08-30T09:58:52.790Z,67.6
2018-08-30T09:59:42.873Z,67.6
2018-08-30T10:00:32.941Z,67.6
2018-08-30T10:01:22.940Z,67.6
2018-08-30T10:02:13.055Z,67.6
2018-08-30T10:03:02.863Z,67.7
2018-08-30T10:03:53.646Z,67.7
2018-08-30T10:04:43.760Z,67.8
2018-08-30T10:05:32.752Z,67.8
2018-08-30T10:06:23.390Z,67.8
2018-08-30T10:07:13.159Z,67.9
2018-08-30T10:08:03.522Z,67.9
2018-08-30T10:08:52.812Z,68
2018-08-30T10:09:43.637Z,68.1
2018-08-30T10:10:33.701Z,68.1
2018-08-30T10:11:23.772Z,68.3
2018-08-30T10:12:13.539Z,68.3
2018-08-30T10:13:03.636Z,68.4
2018-08-30T10:13:53.972Z,68.4
2018-08-30T10:14:43.759Z,68.4
2018-08-30T10:15:33.061Z,68.4
2018-08-30T10:16:23.664Z,68.3
2018-08-30T10:17:14.286Z,68.3
2018-08-30T10:18:04.244Z,68.2
2018-08-30T10:18:54.346Z,68.2
2018-08-30T10:19:44.138Z,68.1
2018-08-30T10:20:34.490Z,68.1
2018-08-30T10:21:24.448Z,68.1
2018-08-30T10:22:14.640Z,68.1
2018-08-30T10:23:04.463Z,68.1
2018-08-30T10:23:54.776Z,68.1
2018-08-30T10:24:44.814Z,68.1
2018-08-30T10:25:35.021Z,68.1
2018-08-30T10:26:24.933Z,68.2
2018-08-30T10:27:15.005Z,68.2
2018-08-30T10:28:05.389Z,68.2
2018-08-30T10:28:54.580Z,68.2
2018-08-30T10:29:45.198Z,68.3
2018-08-30T10:30:35.708Z,68.3
2018-08-30T10:31:25.276Z,68.3
2018-08-30T10:32:15.397Z,68.3
2018-08-30T10:33:05.536Z,68.2
2018-08-30T10:33:55.541Z,68.2
2018-08-30T10:34:45.309Z,68.2
2018-08-30T10:35:35.663Z,68.3
2018-08-30T10:36:25.725Z,68.3
2018-08-30T10:37:15.517Z,68.4
2018-08-30T10:38:06.093Z,68.4
2018-08-30T10:38:55.908Z,68.5
2018-08-30T10:39:45.974Z,68.6
2018-08-30T10:40:36.044Z,68.6
2018-08-30T10:41:26.118Z,68.6
2018-08-30T10:42:16.201Z,68.6
2018-08-30T10:43:06.773Z,68.6
2018-08-30T10:43:55.782Z,68.6
2018-08-30T10:44:46.386Z,68.6
2018-08-30T10:45:35.603Z,68.6
2018-08-30T10:46:26.508Z,68.6
2018-08-30T10:47:16.299Z,68.6
2018-08-30T10:48:06.895Z,68.7
2018-08-30T10:48:56.715Z,68.8
2018-08-30T10:49:46.408Z,68.8
2018-08-30T10:50:36.829Z,68.8
2018-08-30T10:51:26.908Z,68.9
2018-08-30T10:52:16.954Z,68.9
2018-08-30T10:53:06.989Z,68.9
2018-08-30T10:53:57.085Z,68.9
2018-08-30T10:54:47.142Z,68.9
2018-08-30T10:55:36.667Z,68.9
2018-08-30T10:56:28.105Z,69
2018-08-30T10:57:17.571Z,69
2018-08-30T10:58:08.724Z,69.1
2018-08-30T10:58:57.488Z,69.1
2018-08-30T10:59:47.755Z,69.2
2018-08-30T11:00:38.004Z,69.3
2018-08-30T11:01:27.901Z,69.3
2018-08-30T11:02:17.744Z,69.3
2018-08-30T11:03:08.266Z,69.3
2018-08-30T11:03:58.005Z,69.3
2018-08-30T11:04:49.166Z,69.1
2018-08-30T11:05:37.729Z,69
2018-08-30T11:06:32.025Z,68.9
2018-08-30T11:07:19.278Z,68.8
2018-08-30T11:08:08.852Z,68.7
2018-08-30T11:08:57.968Z,68.6
2018-08-30T11:09:49.192Z,68.6
2018-08-30T11:10:39.044Z,68.6
2018-08-30T11:11:28.853Z,68.6
2018-08-30T11:12:18.419Z,68.8
2018-08-30T11:13:09.982Z,68.9
2018-08-30T11:13:59.083Z,68.9
2018-08-30T11:14:49.118Z,69
2018-08-30T11:15:38.518Z,69
2018-08-30T11:16:29.268Z,69
2018-08-30T11:17:19.546Z,69
2018-08-30T11:18:09.156Z,69.1
2018-08-30T11:18:59.273Z,69.1
2018-08-30T11:19:48.841Z,69.1
2018-08-30T11:20:39.186Z,69.2
2018-08-30T11:21:29.760Z,69.2
2018-08-30T11:22:19.312Z,69.1
2018-08-30T11:23:09.589Z,69.1
2018-08-30T11:23:59.651Z,69
2018-08-30T11:24:49.249Z,68.9
2018-08-30T11:25:39.880Z,68.9
2018-08-30T11:26:29.961Z,68.9
2018-08-30T11:27:19.433Z,68.9
2018-08-30T11:28:09.480Z,68.9
2018-08-30T11:29:00.080Z,68.9
2018-08-30T11:29:49.364Z,68.9
2018-08-30T11:30:39.670Z,68.9
2018-08-30T11:31:29.472Z,68.9
2018-08-30T11:32:20.085Z,68.8
2018-08-30T11:33:10.349Z,68.8
2018-08-30T11:34:00.250Z,68.8
2018-08-30T11:34:50.330Z,68.8
2018-08-30T11:35:40.360Z,68.8
2018-08-30T11:36:30.140Z,68.9
2018-08-30T11:37:20.492Z,69
2018-08-30T11:38:10.050Z,69.1
2018-08-30T11:39:00.057Z,69.2
2018-08-30T11:39:50.669Z,69.3
2018-08-30T11:40:40.495Z,69.4
2018-08-30T11:41:31.638Z,69.6
2018-08-30T11:42:20.796Z,69.6
2018-08-30T11:43:10.893Z,69.7
2018-08-30T11:44:01.301Z,69.7
2018-08-30T11:44:51.059Z,69.7
2018-08-30T11:45:41.554Z,69.7
2018-08-30T11:46:31.386Z,69.7
2018-08-30T11:47:20.973Z,69.7
2018-08-30T11:48:10.784Z,69.7
2018-08-30T11:49:01.124Z,69.7
2018-08-30T11:49:51.161Z,69.7
2018-08-30T11:50:41.533Z,69.7
2018-08-30T11:51:31.596Z,69.7
2018-08-30T11:52:21.851Z,69.7
2018-08-30T11:53:11.773Z,69.6
2018-08-30T11:54:01.508Z,69.6
2018-08-30T11:54:51.861Z,69.6
2018-08-30T11:55:41.910Z,69.6
2018-08-30T11:56:32.028Z,69.6
2018-08-30T11:57:21.768Z,69.6
2018-08-30T11:58:12.093Z,69.6
2018-08-30T11:59:02.170Z,69.6
2018-08-30T11:59:52.228Z,69.6
2018-08-30T12:00:42.557Z,69.6
2018-08-30T12:01:32.081Z,69.6
2018-08-30T12:02:22.675Z,69.6
2018-08-30T12:03:12.580Z,69.6
2018-08-30T12:04:02.275Z,69.6
2018-08-30T12:04:52.962Z,69.6
2018-08-30T12:05:42.398Z,69.6
2018-08-30T12:06:32.495Z,69.6
2018-08-30T12:07:22.866Z,69.5
2018-08-30T12:08:12.760Z,69.4
2018-08-30T12:09:02.663Z,69.4
2018-08-30T12:10:07.906Z,69.4
2018-08-30T12:10:43.237Z,69.3
2018-08-30T12:11:33.552Z,69.3
2018-08-30T12:12:23.230Z,69.3
2018-08-30T12:13:13.007Z,69.2
2018-08-30T12:14:02.792Z,69.1
2018-08-30T12:14:53.127Z,69.1
2018-08-30T12:15:43.442Z,69
2018-08-30T12:16:33.586Z,68.9
2018-08-30T12:17:23.621Z,68.9
2018-08-30T12:18:14.096Z,68.9
2018-08-30T12:19:02.887Z,68.9
2018-08-30T12:19:53.819Z,68.8
2018-08-30T12:20:44.428Z,68.8
2018-08-30T12:21:48.849Z,68.7
2018-08-30T12:22:23.994Z,68.5
2018-08-30T12:23:13.796Z,68.4
2018-08-30T12:24:04.132Z,68.2
2018-08-30T12:24:53.913Z,68.1
2018-08-30T12:25:44.248Z,68.1
2018-08-30T12:26:34.329Z,68.1
2018-08-30T12:27:24.196Z,68.2
2018-08-30T12:28:13.959Z,68.2
2018-08-30T12:29:04.730Z,68.2
2018-08-30T12:29:54.448Z,68.2
2018-08-30T12:30:44.469Z,68.1
2018-08-30T12:31:35.171Z,68.1
2018-08-30T12:32:25.005Z,68
2018-08-30T12:33:15.012Z,67.9
2018-08-30T12:34:05.029Z,67.9
2018-08-30T12:34:54.921Z,67.8
2018-08-30T12:35:45.762Z,67.7
2018-08-30T12:36:34.912Z,67.6
2018-08-30T12:37:25.540Z,67.6
2018-08-30T12:38:15.407Z,67.5
2018-08-30T12:39:05.157Z,67.4
2018-08-30T12:39:56.266Z,67.4
2018-08-30T12:40:45.376Z,67.4
2018-08-30T12:41:35.439Z,67.3
2018-08-30T12:42:25.558Z,67.3
2018-08-30T12:43:15.438Z,67.1
2018-08-30T12:44:05.790Z,67.1
2018-08-30T12:44:55.882Z,67
2018-08-30T12:45:45.346Z,66.9
2018-08-30T12:46:35.783Z,66.9
2018-08-30T12:47:25.760Z,66.9
2018-08-30T12:48:16.121Z,66.8
2018-08-30T12:49:05.892Z,66.7
2018-08-30T12:49:56.222Z,66.6
2018-08-30T12:50:47.320Z,66.4
2018-08-30T12:51:38.104Z,66.4
2018-08-30T12:52:26.576Z,66.3
2018-08-30T12:53:16.974Z,66.3
2018-08-30T12:54:07.562Z,66.3
2018-08-30T12:54:56.743Z,66.3
2018-08-30T12:55:47.087Z,66.3
2018-08-30T12:56:37.466Z,66.3
2018-08-30T12:57:27.025Z,66.3
2018-08-30T12:58:18.655Z,66.3
2018-08-30T12:59:07.839Z,66.3
2018-08-30T12:59:58.003Z,66.3
2018-08-30T13:00:47.060Z,66.3
2018-08-30T13:01:38.387Z,66.3
2018-08-30T13:02:27.735Z,66.2
2018-08-30T13:03:18.824Z,66.2
2018-08-30T13:04:07.673Z,66.2
2018-08-30T13:04:58.812Z,66.2
2018-08-30T13:05:49.939Z,66.1
2018-08-30T13:06:37.722Z,66.1
2018-08-30T13:07:28.478Z,66.1
2018-08-30T13:08:19.179Z,66
2018-08-30T13:09:09.828Z,65.9
2018-08-30T13:09:59.807Z,65.9
2018-08-30T13:10:50.314Z,65.8
2018-08-30T13:11:38.973Z,65.7
2018-08-30T13:12:30.127Z,65.6
2018-08-30T13:13:18.682Z,65.4
2018-08-30T13:14:09.831Z,65.3
2018-08-30T13:14:58.451Z,65.1
2018-08-30T13:15:48.140Z,65
2018-08-30T13:16:39.081Z,64.9
2018-08-30T13:17:30.128Z,64.7
2018-08-30T13:18:19.850Z,64.4
2018-08-30T13:19:11.782Z,63.8
2018-08-30T13:20:00.008Z,63.3
2018-08-30T13:20:50.010Z,63
2018-08-30T13:21:39.849Z,62.9
2018-08-30T13:22:31.406Z,63
2018-08-30T13:23:20.484Z,63.2
2018-08-30T13:24:10.132Z,63.4
2018-08-30T13:25:02.638Z,63.8
2018-08-30T13:25:50.858Z,64.2
2018-08-30T13:26:39.817Z,64.7
2018-08-30T13:27:31.696Z,65
2018-08-30T13:28:21.084Z,65.4
2018-08-30T13:29:10.661Z,65.8
2018-08-30T13:30:00.648Z,66.1
2018-08-30T13:30:51.697Z,67.1
2018-08-30T13:31:42.316Z,67.8
2018-08-30T13:32:31.654Z,67.3
2018-08-30T13:33:24.511Z,66.4
2018-08-30T13:34:12.382Z,64.8
2018-08-30T13:35:03.840Z,63.6
2018-08-30T13:35:53.223Z,62.8
2018-08-30T13:36:42.917Z,62.4
2018-08-30T13:37:29.853Z,62.3
2018-08-30T13:38:22.104Z,62.5
2018-08-30T13:39:12.863Z,62.8
2018-08-30T13:40:03.451Z,63
2018-08-30T13:40:51.512Z,63.2
2018-08-30T13:41:41.209Z,63.3
2018-08-30T13:42:33.578Z,63.4
2018-08-30T13:43:22.700Z,63.6
2018-08-30T13:44:13.238Z,63.8
2018-08-30T13:45:03.737Z,64
2018-08-30T13:45:53.598Z,64.2
2018-08-30T13:46:42.059Z,64.4
2018-08-30T13:47:33.464Z,64.6
2018-08-30T13:48:22.079Z,64.7
2018-08-30T13:49:12.824Z,64.8
2018-08-30T13:50:03.274Z,64.9
2018-08-30T13:50:54.209Z,65
2018-08-30T13:51:43.996Z,65.1
2018-08-30T13:52:30.537Z,65.3
2018-08-30T13:53:24.619Z,65.3
2018-08-30T13:54:14.672Z,65.4
2018-08-30T13:55:02.637Z,65.4
2018-08-30T13:55:54.643Z,65.6
2018-08-30T13:56:44.918Z,65.6
2018-08-30T13:57:36.345Z,65.8
2018-08-30T13:58:24.388Z,65.8
2018-08-30T13:59:15.734Z,65.9
2018-08-30T14:00:05.359Z,65.9
2018-08-30T14:00:55.716Z,65.9
2018-08-30T14:01:44.329Z,65.9
2018-08-30T14:02:33.012Z,65.9
2018-08-30T14:03:23.197Z,65.9
2018-08-30T14:04:14.479Z,65.8
2018-08-30T14:05:04.051Z,65.8
2018-08-30T14:05:53.621Z,65.8
2018-08-30T14:06:45.028Z,65.7
2018-08-30T14:07:33.702Z,65.6
2018-08-30T14:08:23.648Z,65.6
2018-08-30T14:09:13.888Z,65.4
2018-08-30T14:10:06.239Z,65.4
2018-08-30T14:10:54.537Z,65.3
2018-08-30T14:11:46.168Z,65.2
2018-08-30T14:12:34.175Z,65.1
2018-08-30T14:13:24.087Z,64.9
2018-08-30T14:14:14.699Z,64.8
2018-08-30T14:15:05.610Z,64.6
2018-08-30T14:15:53.040Z,64.5
2018-08-30T14:16:43.575Z,64.4
2018-08-30T14:17:32.800Z,64.3
2018-08-30T14:18:23.307Z,64.1
2018-08-30T14:19:13.283Z,63.9
2018-08-30T14:20:03.309Z,63.8
2018-08-30T14:20:53.334Z,63.6
2018-08-30T14:21:43.519Z,63.4
2018-08-30T14:22:33.424Z,63.2
2018-08-30T14:23:23.954Z,63.1
2018-08-30T14:24:13.347Z,62.9
2018-08-30T14:25:04.108Z,62.8
2018-08-30T14:25:53.361Z,62.6
2018-08-30T14:26:44.082Z,62.5
2018-08-30T14:27:33.545Z,62.3
2018-08-30T14:28:23.649Z,62.2
2018-08-30T14:29:13.637Z,62
2018-08-30T14:30:03.676Z,61.8
2018-08-30T14:30:54.120Z,61.6
2018-08-30T14:31:44.109Z,61.4
2018-08-30T14:32:34.229Z,61.2
2018-08-30T14:33:23.998Z,61
2018-08-30T14:34:14.294Z,60.8
2018-08-30T14:35:04.497Z,60.7
2018-08-30T14:35:54.234Z,60.4
2018-08-30T14:36:44.562Z,60.3
2018-08-30T14:37:34.834Z,60.1
2018-08-30T14:38:24.766Z,59.8
2018-08-30T14:39:15.296Z,59.6
2018-08-30T14:40:04.843Z,59.4
2018-08-30T14:41:09.957Z,59.2
2018-08-30T14:41:45.718Z,58.9
2018-08-30T14:42:35.197Z,58.7
2018-08-30T14:43:25.108Z,58.5
2018-08-30T14:44:15.158Z,58.3
2018-08-30T14:45:05.165Z,58
2018-08-30T14:45:55.413Z,57.8
2018-08-30T14:46:45.317Z,57.6
2018-08-30T14:47:36.754Z,57.3
2018-08-30T14:48:25.520Z,57
2018-08-30T14:49:15.341Z,56.9
2018-08-30T14:50:05.268Z,56.7
2018-08-30T14:50:55.692Z,56.4
2018-08-30T14:51:45.845Z,56.3
2018-08-30T14:52:35.225Z,56.1
2018-08-30T14:53:26.748Z,55.8
2018-08-30T14:54:16.239Z,55.5
2018-08-30T14:55:05.940Z,55.4
2018-08-30T14:55:56.233Z,55.2
2018-08-30T14:56:46.164Z,54.9
2018-08-30T14:57:36.244Z,54.8
2018-08-30T14:58:26.201Z,54.6
2018-08-30T14:59:16.870Z,54.3
2018-08-30T15:00:06.737Z,54.1
2018-08-30T15:00:55.583Z,53.8
2018-08-30T15:01:46.478Z,53.5
2018-08-30T15:02:36.258Z,53.3
2018-08-30T15:03:26.408Z,53
2018-08-30T15:04:16.689Z,52.8
2018-08-30T15:05:06.625Z,52.4
2018-08-30T15:05:57.106Z,52.1
2018-08-30T15:06:46.874Z,51.9
2018-08-30T15:07:36.642Z,51.6
2018-08-30T15:08:26.785Z,51.4
2018-08-30T15:09:17.056Z,51.1
2018-08-30T15:10:06.575Z,50.9
2018-08-30T15:10:56.931Z,50.7
2018-08-30T15:11:47.341Z,50.4
2018-08-30T15:12:38.189Z,50.3
2018-08-30T15:13:27.516Z,50.1
2018-08-30T15:14:17.638Z,49.9
2018-08-30T15:15:07.550Z,49.6
2018-08-30T15:15:57.622Z,49.4
2018-08-30T15:16:47.703Z,49.3
2018-08-30T15:17:37.736Z,49
2018-08-30T15:18:27.815Z,48.8
2018-08-30T15:19:17.888Z,48.6
2018-08-30T15:20:08.573Z,48.4
2018-08-30T15:20:57.778Z,48.2
2018-08-30T15:21:48.123Z,48
2018-08-30T15:22:38.221Z,47.8
2018-08-30T15:23:28.534Z,47.6
2018-08-30T15:24:18.265Z,47.4
2018-08-30T15:25:08.307Z,47.3
2018-08-30T15:25:57.830Z,47.1
2018-08-30T15:26:49.043Z,46.8
2018-08-30T15:27:38.030Z,46.6
2018-08-30T15:28:28.541Z,46.4
2018-08-30T15:29:19.448Z,46.3
2018-08-30T15:30:08.822Z,46.1
2018-08-30T15:30:58.767Z,45.8
2018-08-30T15:31:48.902Z,45.7
2018-08-30T15:32:38.693Z,45.4
2018-08-30T15:33:28.993Z,45.3
2018-08-30T15:34:18.769Z,45.1
2018-08-30T15:35:10.132Z,44.9
2018-08-30T15:35:58.893Z,44.7
2018-08-30T15:36:49.414Z,44.4
2018-08-30T15:37:39.080Z,44.2
2018-08-30T15:38:30.377Z,43.9
2018-08-30T15:39:19.449Z,43.7
2018-08-30T15:40:24.242Z,43.4
2018-08-30T15:40:59.666Z,43.1
2018-08-30T15:41:49.666Z,42.9
2018-08-30T15:42:39.784Z,42.7
2018-08-30T15:43:29.869Z,42.4
2018-08-30T15:44:19.946Z,42.2
2018-08-30T15:45:09.502Z,41.9
2018-08-30T15:46:00.007Z,41.6
2018-08-30T15:46:49.816Z,41.4
2018-08-30T15:47:39.839Z,41.1
2018-08-30T15:48:30.012Z,40.9
2018-08-30T15:49:20.302Z,40.6
2018-08-30T15:50:10.294Z,40.4
2018-08-30T15:51:00.412Z,40.1
2018-08-30T15:51:50.423Z,39.9
2018-08-30T15:52:40.498Z,39.6
2018-08-30T15:53:30.686Z,39.4
2018-08-30T15:54:20.879Z,39.1
2018-08-30T15:55:10.739Z,38.9
2018-08-30T15:56:00.460Z,38.6
2018-08-30T15:56:50.810Z,38.4
2018-08-30T16:15:35.727Z,34.3
2018-08-30T16:16:26.025Z,34.2
2018-08-30T16:17:16.899Z,34
2018-08-30T16:18:05.267Z,33.9
2018-08-30T16:18:56.149Z,33.8
2018-08-30T16:19:46.065Z,33.6
2018-08-30T16:20:36.514Z,33.4
2018-08-30T16:21:26.408Z,33.3
2018-08-30T16:22:16.224Z,33.2
2018-08-30T16:23:06.779Z,33.1
2018-08-30T16:23:56.579Z,32.9
2018-08-30T16:24:47.121Z,32.8
2018-08-30T16:25:36.522Z,32.7
2018-08-30T16:26:26.772Z,32.6
2018-08-30T16:27:16.552Z,32.4
2018-08-30T16:28:06.963Z,32.4
2018-08-30T16:28:57.483Z,32.3
2018-08-30T16:29:46.752Z,32.1
2018-08-30T16:30:37.685Z,32
2018-08-30T16:31:27.954Z,31.9
2018-08-30T16:32:17.091Z,31.8
2018-08-30T16:33:06.732Z,31.7
2018-08-30T16:33:57.367Z,31.6
2018-08-30T16:34:47.590Z,31.5
2018-08-30T16:35:37.508Z,31.4
2018-08-30T16:36:27.650Z,31.3
2018-08-30T16:37:17.405Z,31.3
2018-08-30T16:38:07.105Z,31.1
2018-08-30T16:38:57.481Z,31
2018-08-30T16:39:48.185Z,30.9
2018-08-30T16:40:37.885Z,30.8
2018-08-30T16:41:28.718Z,30.8
2018-08-30T16:42:17.737Z,30.6
2018-08-30T16:43:08.072Z,30.6
2018-08-30T16:43:58.465Z,30.4
2018-08-30T16:44:48.295Z,30.4
2018-08-30T16:45:37.729Z,30.3
2018-08-30T16:46:28.151Z,30.2
2018-08-30T16:47:18.590Z,30.1
2018-08-30T16:48:08.477Z,30
2018-08-30T16:48:59.369Z,29.9
2018-08-30T16:49:48.412Z,29.8
2018-08-30T16:50:38.772Z,29.8
2018-08-30T16:51:28.759Z,29.7
2018-08-30T16:52:18.219Z,29.6
2018-08-30T16:53:09.399Z,29.4
2018-08-30T16:53:59.257Z,29.4
2018-08-30T16:54:48.714Z,29.3
2018-08-30T16:55:39.914Z,29.3
2018-08-30T16:56:29.522Z,29.2
2018-08-30T16:57:19.186Z,29.1
2018-08-30T16:58:08.989Z,29
2018-08-30T16:58:59.477Z,28.9
2018-08-30T16:59:49.389Z,28.9
2018-08-30T17:00:39.474Z,28.8
2018-08-30T17:01:29.131Z,28.6
2018-08-30T17:02:20.480Z,28.6
2018-08-30T17:03:09.074Z,28.5
2018-08-30T17:04:00.644Z,28.4
2018-08-30T17:04:49.765Z,28.3
2018-08-30T17:05:39.323Z,28.3
2018-08-30T17:06:30.213Z,28.2
2018-08-30T17:07:20.061Z,28.1
2018-08-30T17:08:09.496Z,28
2018-08-30T17:08:59.921Z,27.9
2018-08-30T17:09:49.903Z,27.9
2018-08-30T17:11:29.746Z,27.8
2018-08-30T17:12:20.383Z,27.6
2018-08-30T17:13:10.460Z,27.6
2018-08-30T17:14:00.219Z,27.5
2018-08-30T17:14:50.683Z,27.4
2018-08-30T17:15:40.799Z,27.4
2018-08-30T17:16:30.693Z,27.3
2018-08-30T17:17:20.865Z,27.3
2018-08-30T17:18:11.077Z,27.1
2018-08-30T17:19:00.355Z,27.1
2018-08-30T17:19:50.673Z,27.1
2018-08-30T17:20:41.029Z,27
2018-08-30T17:21:31.672Z,26.9
2018-08-30T17:22:21.140Z,26.9
2018-08-30T17:23:11.233Z,26.8
2018-08-30T17:24:01.302Z,26.8
2018-08-30T17:24:51.652Z,26.7
2018-08-30T17:25:41.419Z,26.6
2018-08-30T17:26:30.927Z,26.6
2018-08-30T17:27:21.276Z,26.6
2018-08-30T17:28:11.612Z,26.4
2018-08-30T17:29:01.689Z,26.4
2018-08-30T17:29:51.437Z,26.4
2018-08-30T17:30:41.809Z,26.3
2018-08-30T17:31:31.639Z,26.3
2018-08-30T17:32:21.607Z,26.2
2018-08-30T17:33:12.037Z,26.2
2018-08-30T17:34:02.097Z,26.1
2018-08-30T17:34:51.852Z,26.1
2018-08-30T17:35:42.205Z,26
2018-08-30T17:36:32.258Z,25.9
2018-08-30T17:37:22.319Z,25.9
2018-08-30T17:38:12.382Z,25.9
2018-08-30T17:39:02.177Z,25.8
2018-08-30T17:39:52.264Z,25.8
2018-08-30T17:40:42.696Z,25.7
2018-08-30T17:41:32.669Z,25.7
2018-08-30T17:42:23.951Z,25.6
2018-08-30T17:43:12.806Z,25.6
2018-08-30T17:44:02.954Z,25.5
2018-08-30T17:44:52.907Z,25.5
2018-08-30T17:45:43.411Z,25.4
2018-08-30T17:46:32.811Z,25.4
2018-08-30T17:47:23.146Z,25.3
2018-08-30T17:48:13.259Z,25.3
2018-08-30T17:49:02.987Z,25.2
2018-08-30T17:49:53.399Z,25.2
2018-08-30T17:50:43.383Z,25.1
2018-08-30T17:51:32.976Z,25.1
2018-08-30T17:52:23.229Z,25.1
2018-08-30T17:53:13.089Z,25
2018-08-30T17:54:03.349Z,25
2018-08-30T17:54:53.693Z,24.9
2018-08-30T17:55:43.751Z,24.9
2018-08-30T17:56:33.851Z,24.9
2018-08-30T17:57:23.717Z,24.9
2018-08-30T17:58:14.034Z,24.8
2018-08-30T17:59:04.033Z,24.8
2018-08-30T17:59:54.320Z,24.8
2018-08-30T18:00:43.896Z,24.8
2018-08-30T18:01:34.803Z,24.7
2018-08-30T18:02:24.010Z,24.7
2018-08-30T18:03:15.125Z,24.6
2018-08-30T18:04:04.215Z,24.6
2018-08-30T18:04:54.505Z,24.6
2018-08-30T18:05:44.612Z,24.6
2018-08-30T18:06:35.131Z,24.5
2018-08-30T18:07:24.413Z,24.5
2018-08-30T18:08:14.752Z,24.5
2018-08-30T18:09:04.727Z,24.4
2018-08-30T18:09:55.132Z,24.4
2018-08-30T18:10:44.654Z,24.4
2018-08-30T18:11:35.042Z,24.4
2018-08-30T18:12:25.288Z,24.3
2018-08-30T18:13:14.848Z,24.3
2018-08-30T18:14:04.907Z,24.3
2018-08-30T18:14:55.294Z,24.3
2018-08-30T18:15:45.339Z,24.2
2018-08-30T18:16:35.396Z,24.2
2018-08-30T18:17:25.456Z,24.2